createdAt,value
2019-03-08T10:08:02.634Z,10.09
2019-03-08T10:10:56.884Z,9.85
2019-03-08T10:13:51.227Z,9.82
2019-03-08T10:16:45.589Z,9.72
2019-03-08T10:19:45.806Z,9.73
2019-03-08T10:22:35.986Z,9.78
2019-03-08T10:25:39.011Z,10.00
2019-03-08T10:28:30.214Z,9.98
2019-03-08T10:31:12.740Z,9.93
2019-03-08T10:34:16.216Z,9.93
2019-03-08T10:37:04.579Z,10.11
2019-03-08T10:39:46.008Z,10.08
2019-03-08T10:42:25.222Z,9.91
2019-03-08T10:45:12.072Z,9.96
2019-03-08T10:47:56.102Z,9.97
2019-03-08T10:50:37.469Z,10.26
2019-03-08T10:53:23.885Z,10.26
2019-03-08T10:56:03.833Z,10.25
2019-03-08T10:58:41.167Z,10.38
2019-03-08T11:01:18.697Z,10.14
2019-03-08T11:04:11.333Z,9.86
2019-03-08T11:07:05.611Z,9.55
2019-03-08T11:09:51.372Z,9.67
2019-03-08T11:12:38.095Z,9.53
2019-03-08T11:15:24.084Z,9.42
2019-03-08T11:18:09.544Z,9.70
2019-03-08T11:21:12.784Z,9.78
2019-03-08T11:24:09.934Z,10.21
2019-03-08T11:27:05.902Z,10.01
2019-03-08T11:30:09.192Z,10.24
2019-03-08T11:32:46.548Z,10.10
2019-03-08T11:35:37.797Z,10.40
2019-03-08T11:38:18.894Z,11.03
2019-03-08T11:41:07.112Z,10.91
2019-03-08T11:44:01.090Z,10.59
2019-03-08T11:46:49.204Z,10.63
2019-03-08T11:49:37.400Z,10.43
2019-03-08T11:52:44.109Z,10.44
2019-03-08T11:55:47.658Z,10.27
2019-03-08T11:58:26.079Z,10.15
2019-03-08T12:01:15.382Z,10.03
2019-03-08T12:04:02.494Z,10.09
2019-03-08T12:06:49.414Z,10.11
2019-03-08T12:09:49.527Z,10.04
2019-03-08T12:12:30.905Z,9.82
2019-03-08T12:15:21.858Z,9.56
2019-03-08T12:17:59.313Z,9.28
2019-03-08T12:20:35.354Z,9.02
2019-03-08T12:23:23.521Z,8.81
2019-03-08T12:26:09.296Z,8.70
2019-03-08T12:29:12.660Z,8.33
2019-03-08T12:31:57.804Z,8.32
2019-03-08T12:34:42.698Z,8.14
2019-03-08T12:37:19.891Z,8.02
2019-03-08T12:39:56.483Z,8.00
2019-03-08T12:42:53.951Z,7.82
2019-03-08T12:45:48.242Z,7.90
2019-03-08T12:48:35.290Z,8.76
2019-03-08T12:51:32.372Z,9.77
2019-03-08T12:54:19.574Z,11.71
2019-03-08T12:57:11.287Z,11.11
2019-03-08T13:00:11.681Z,10.98
2019-03-08T13:03:02.819Z,10.86
2019-03-08T13:05:49.907Z,10.06
2019-03-08T13:08:29.824Z,9.48
2019-03-08T13:10:58.959Z,9.66
2019-03-08T13:13:28.145Z,10.06
2019-03-08T13:15:57.344Z,10.96
2019-03-08T13:18:26.941Z,12.18
2019-03-08T13:20:56.179Z,12.92
2019-03-08T13:23:25.411Z,12.21
2019-03-08T13:25:54.848Z,13.17
2019-03-08T13:28:24.068Z,11.91
2019-03-08T13:30:53.416Z,11.86
2019-03-08T13:33:22.806Z,12.26
2019-03-08T13:35:52.038Z,11.87
2019-03-08T13:38:21.240Z,12.89
2019-03-08T13:40:50.450Z,12.35
2019-03-08T13:43:19.619Z,11.79
2019-03-08T13:45:48.811Z,12.25
2019-03-08T13:48:17.977Z,12.37
2019-03-08T13:50:47.299Z,11.90
2019-03-08T13:53:16.524Z,11.30
2019-03-08T13:55:45.764Z,11.84
2019-03-08T13:58:15.042Z,11.97
2019-03-08T14:00:44.590Z,11.85
2019-03-08T14:03:13.792Z,11.46
2019-03-08T14:05:43.048Z,10.98
2019-03-08T14:08:12.264Z,10.46
2019-03-08T14:10:41.690Z,9.95
2019-03-08T14:13:11.026Z,9.80
2019-03-08T14:15:40.722Z,9.50
2019-03-08T14:18:09.891Z,9.06
2019-03-08T14:20:39.154Z,8.85
2019-03-08T14:23:08.434Z,8.37
2019-03-08T14:25:37.768Z,8.54
2019-03-08T14:28:07.059Z,8.52
2019-03-08T14:30:42.622Z,8.68
2019-03-08T14:33:11.906Z,9.09
2019-03-08T14:35:41.062Z,8.97
2019-03-08T14:38:10.242Z,9.09
2019-03-08T14:40:49.060Z,10.12
2019-03-08T14:43:26.659Z,11.01
2019-03-08T14:46:03.337Z,11.43
2019-03-08T14:48:32.523Z,11.21
2019-03-08T14:51:02.008Z,10.63
2019-03-08T14:53:32.774Z,9.95
2019-03-08T14:56:02.283Z,9.97
2019-03-08T14:58:36.059Z,9.77
2019-03-08T15:01:06.157Z,9.47
2019-03-08T15:03:42.986Z,9.25
2019-03-08T15:06:04.449Z,9.36
2019-03-08T15:08:33.644Z,9.48
2019-03-08T15:11:02.993Z,9.89
2019-03-08T15:13:32.184Z,10.48
2019-03-08T15:16:02.070Z,10.88
2019-03-08T15:18:32.308Z,10.73
2019-03-08T15:21:01.554Z,10.61
2019-03-08T15:23:30.796Z,10.71
2019-03-08T15:26:00.086Z,10.05
2019-03-08T15:28:29.473Z,10.05
2019-03-08T15:30:58.709Z,9.82
2019-03-08T15:33:27.970Z,9.83
2019-03-08T15:35:58.261Z,10.00
2019-03-08T15:38:27.407Z,10.05
2019-03-08T15:40:56.852Z,10.25
2019-03-08T15:43:26.082Z,10.59
2019-03-08T15:45:55.358Z,10.24
2019-03-08T15:48:24.573Z,10.09
2019-03-08T15:50:53.793Z,9.99
2019-03-08T15:53:23.115Z,10.23
2019-03-08T15:55:53.350Z,10.53
2019-03-08T15:58:22.762Z,10.86
2019-03-08T16:00:51.987Z,11.01
2019-03-08T16:03:21.161Z,11.03
2019-03-08T16:05:50.371Z,11.25
2019-03-08T16:08:19.554Z,11.29
2019-03-08T16:10:48.764Z,10.97
2019-03-08T16:13:17.903Z,10.80
2019-03-08T16:15:47.078Z,10.91
2019-03-08T16:18:17.922Z,10.67
2019-03-08T16:20:47.147Z,10.46
2019-03-08T16:23:16.313Z,10.40
2019-03-08T16:25:47.927Z,10.53
2019-03-08T16:28:16.260Z,10.57
2019-03-08T16:30:47.461Z,10.83
2019-03-08T16:33:20.003Z,10.83
2019-03-08T16:36:02.365Z,10.73
2019-03-08T16:38:48.898Z,10.89
2019-03-08T16:41:29.483Z,10.85
2019-03-08T16:44:19.990Z,10.63
2019-03-08T16:47:17.041Z,10.28
2019-03-08T16:50:02.971Z,10.16
2019-03-08T16:52:49.258Z,9.97
2019-03-08T16:55:41.275Z,9.81
2019-03-08T16:58:38.319Z,9.60
2019-03-08T17:01:32.492Z,9.43
2019-03-08T17:04:16.456Z,9.36
2019-03-08T17:06:51.245Z,9.25
2019-03-08T17:09:42.920Z,9.13
2019-03-08T17:12:26.245Z,9.04
2019-03-08T17:15:23.485Z,8.90
2019-03-08T17:18:14.595Z,8.87
2019-03-08T17:20:54.472Z,8.73
2019-03-08T17:23:37.562Z,8.67
2019-03-08T17:26:29.472Z,8.61
2019-03-08T17:29:11.903Z,8.46
2019-03-08T17:32:01.471Z,8.31
2019-03-08T17:34:49.621Z,8.22
2019-03-08T17:37:32.807Z,8.09
2019-03-08T17:40:19.972Z,7.98
2019-03-08T17:42:58.103Z,7.91
2019-03-08T17:45:55.560Z,7.84
2019-03-08T17:48:43.694Z,7.80
2019-03-08T17:51:31.687Z,7.85
2019-03-08T17:54:32.317Z,7.80
2019-03-08T17:57:32.413Z,7.76
2019-03-08T18:00:13.439Z,7.73
2019-03-08T18:03:00.826Z,7.78
2019-03-08T18:05:47.723Z,7.81
2019-03-08T18:08:48.035Z,7.88
2019-03-08T18:11:36.201Z,7.87
2019-03-08T18:14:27.375Z,7.83
2019-03-08T18:17:05.546Z,7.71
2019-03-08T18:19:52.230Z,7.64
2019-03-08T18:22:46.544Z,7.55
2019-03-08T18:25:37.808Z,7.44
2019-03-08T18:28:25.169Z,7.28
2019-03-08T18:31:16.341Z,7.01
2019-03-08T18:34:16.618Z,6.99
2019-03-08T18:37:03.411Z,6.89
2019-03-08T18:39:51.551Z,6.83
2019-03-08T18:42:54.966Z,6.69
2019-03-08T18:45:46.527Z,6.57
2019-03-08T18:48:34.729Z,6.45
2019-03-08T18:51:32.746Z,6.36
2019-03-08T18:54:21.109Z,6.36
2019-03-08T18:57:06.710Z,6.33
2019-03-08T18:59:57.680Z,6.32
2019-03-08T19:02:35.843Z,6.24
2019-03-08T19:05:30.393Z,6.25
2019-03-08T19:08:06.311Z,6.28
2019-03-08T19:10:52.883Z,6.33
2019-03-08T19:13:52.994Z,6.24
2019-03-08T19:16:31.438Z,6.21
2019-03-08T19:19:11.099Z,6.04
2019-03-08T19:21:58.370Z,5.95
2019-03-08T19:24:41.705Z,5.84
2019-03-08T19:27:24.923Z,5.75
2019-03-08T19:30:16.369Z,5.71
2019-03-08T19:35:01.922Z,5.73
2019-03-08T20:55:24.836Z,5.33
2019-03-08T20:57:54.396Z,5.24
2019-03-08T21:00:23.646Z,5.23
2019-03-08T21:02:52.937Z,5.25
2019-03-08T21:05:22.241Z,5.33
2019-03-08T21:07:51.548Z,5.37
2019-03-08T21:10:20.837Z,5.34
2019-03-08T21:12:51.031Z,5.29
2019-03-08T21:15:25.439Z,5.31
2019-03-08T21:17:51.442Z,5.27
2019-03-08T21:20:20.690Z,5.24
2019-03-08T21:22:50.006Z,5.20
2019-03-08T21:25:19.251Z,5.14
2019-03-08T21:27:48.745Z,5.24
2019-03-08T21:30:18.063Z,5.30
2019-03-08T21:32:47.554Z,5.34
2019-03-08T21:35:16.832Z,5.35
2019-03-08T21:37:46.357Z,5.33
2019-03-08T21:40:15.733Z,5.46
2019-03-08T21:42:44.959Z,5.52
2019-03-08T21:45:14.513Z,5.49
2019-03-08T21:47:43.914Z,5.49
2019-03-08T21:50:13.867Z,5.42
2019-03-08T21:52:43.182Z,5.40
2019-03-08T21:55:12.407Z,5.36
2019-03-08T21:57:41.962Z,5.37
2019-03-08T22:00:16.328Z,5.39
2019-03-08T22:02:45.634Z,5.44
2019-03-08T22:05:16.250Z,5.48
2019-03-08T22:07:45.481Z,5.46
2019-03-08T22:10:39.983Z,5.49
2019-03-08T22:13:09.329Z,5.39
2019-03-08T22:15:38.895Z,5.48
2019-03-08T22:18:08.122Z,5.43
2019-03-08T22:20:37.382Z,5.41
2019-03-08T22:23:06.956Z,5.42
2019-03-08T22:25:36.172Z,5.48
2019-03-08T22:28:05.356Z,5.57
2019-03-08T22:30:34.599Z,5.69
2019-03-08T22:33:03.775Z,5.89
2019-03-08T22:35:33.122Z,6.11
2019-03-08T22:38:02.310Z,6.30
2019-03-08T22:40:31.512Z,6.39
2019-03-08T22:43:00.761Z,6.40
2019-03-08T22:45:29.959Z,6.41
2019-03-08T22:47:59.242Z,6.53
2019-03-08T22:50:28.459Z,6.64
2019-03-08T22:52:57.714Z,6.69
2019-03-08T22:55:26.902Z,6.71
2019-03-08T22:57:56.137Z,6.76
2019-03-08T23:00:50.056Z,6.82
2019-03-08T23:03:19.490Z,6.85
2019-03-08T23:05:48.634Z,6.89
2019-03-08T23:08:17.887Z,6.94
2019-03-08T23:10:47.490Z,6.95
2019-03-08T23:13:16.672Z,6.94
2019-03-08T23:15:45.851Z,6.90
2019-03-08T23:18:15.047Z,6.95
2019-03-08T23:20:44.323Z,6.89
2019-03-08T23:23:13.767Z,6.84
2019-03-08T23:25:43.005Z,6.78
2019-03-08T23:28:30.193Z,6.69
2019-03-08T23:31:03.941Z,6.75
2019-03-08T23:33:33.227Z,6.80
2019-03-08T23:36:02.453Z,6.87
2019-03-08T23:38:31.608Z,6.95
2019-03-08T23:41:00.898Z,6.98
2019-03-08T23:43:31.528Z,6.99
2019-03-08T23:46:00.709Z,7.01
2019-03-08T23:48:29.894Z,6.96
2019-03-08T23:50:59.093Z,6.94
2019-03-08T23:53:28.291Z,7.01
2019-03-08T23:55:57.486Z,6.98
2019-03-08T23:58:26.683Z,6.88
